This is the latest recevied weather packets stored in our database for station/object N9XTN-3. If no packets are shown the sender has not sent any weather packets the latest 10 day(s).
| Time | Temp. | Humidity | Pressure | Rain* | Wind** | Luminosity | Snow |
|---|---|---|---|---|---|---|---|
| 1777451716 | 3.89° C | 92% | 1019.7 hPa | 0 mm | - | - | - |
| 1777450516 | 4.44° C | 92% | 1019.8 hPa | 0 mm | - | - | - |
| 1777449916 | 4.44° C | 92% | 1019.9 hPa | 0 mm | - | - | - |
| 1777445116 | 6.11° C | 90% | 1020.1 hPa | 0 mm | - | - | - |
| 1777443336 | 6.67° C | 89% | 1019.9 hPa | 0 mm | - | - | - |
| 1777443016 | 6.67° C | 89% | 1020 hPa | 0 mm | - | - | - |
| 1777440016 | 7.22° C | 88% | 1019.8 hPa | 0 mm | - | - | - |
| 1777439116 | 7.78° C | 88% | 1019.8 hPa | 0 mm | - | - | - |
| 1777434316 | 7.78° C | 88% | 1019.9 hPa | 0 mm | - | - | - |
| 1777429516 | 8.33° C | 85% | 1019.5 hPa | 0 mm | - | - | - |
| 1777427457 | 8.33° C | 84% | 1019 hPa | 0 mm | - | - | - |
| 1777421716 | 11.11° C | 65% | 1017.7 hPa | 0 mm | - | - | - |
| 1777419916 | 11.11° C | 60% | 1017.2 hPa | 0 mm | - | - | - |
| 1777419316 | 11.11° C | 60% | 1016.9 hPa | 0 mm | - | - | - |
| 1777419016 | 11.11° C | 60% | 1016.9 hPa | 0 mm | - | - | - |
| 1777418716 | 11.11° C | 60% | 1017 hPa | 0 mm | - | - | - |
| 1777417216 | 11.67° C | 59% | 1016.8 hPa | 0 mm | - | - | - |
| 1777416616 | 11.67° C | 58% | 1016.8 hPa | 0 mm | - | - | - |
| 1777415116 | 11.11° C | 58% | 1016.7 hPa | 0 mm | - | - | - |
| 1777412116 | 11.11° C | 60% | 1017.4 hPa | 0 mm | - | - | - |
| 1777410316 | 10° C | 65% | 1017.9 hPa | 0 mm | - | - | - |
| 1777409716 | 10° C | 65% | 1017.9 hPa | 0 mm | - | - | - |
| 1777409416 | 10° C | 65% | 1017.8 hPa | 0 mm | - | - | - |
| 1777408516 | 10° C | 66% | 1018.1 hPa | 0 mm | - | - | - |
| 1777408216 | 10° C | 66% | 1018.2 hPa | 0 mm | - | - | - |
* Rain latest hour (hover to see other rain measurements)
** Current wind speed in m/s (hover to see current wind gust speed)